Terminal Aerodrome Forecast
Issued by NWS

Home | Current Version | Previous Version | Text Only | Print | Product List | Glossary On
Versions: 1 2 3 4 5 6 7 8 9 10 11 12 13 14
000
FTUS42 KTAE 051120
TAFABY
TAF
KABY 051120Z 0512/0612 VRB04KT P6SM SCT250
     FM051400 12005KT P6SM SCT040
     FM051800 08007KT P6SM VCTS SCT040CB
     FM060100 00000KT P6SM BKN250=

USA.gov is the U.S. government's official web portal to all federal, state and local government web resources and services.